Time;durP1;ratioP1;P1;durP2;ratioP2;P2;SDS_P1;SDS_P2;PMS_P1;PMS_P2;Temp;Humidity;BMP_temperature;BMP_pressure;BME280_temperature;BME280_humidity;BME280_pressure;Samples;Min_cycle;Max_cycle;Signal;HPM_P1;HPM_P2
2022/12/18 00:02:03;;;;;;;80.63;37.67;;;-3.40;33.60;;;;;;4967950;28;20914;-71
2022/12/18 00:04:30;;;;;;;82.53;35.90;;;-3.40;33.60;;;;;;4967340;28;20485;-71
2022/12/18 00:06:57;;;;;;;81.90;34.53;;;-3.40;33.70;;;;;;4967301;28;20988;-71
2022/12/18 00:09:24;;;;;;;93.70;36.77;;;-3.40;33.70;;;;;;4968113;28;20461;-70
2022/12/18 00:11:50;;;;;;;77.60;34.10;;;-3.40;33.80;;;;;;4969926;28;20473;-73
2022/12/18 00:14:17;;;;;;;100.40;38.80;;;-3.40;33.80;;;;;;4966574;28;20576;-72
2022/12/18 00:16:46;;;;;;;84.90;36.37;;;-3.40;33.80;;;;;;4966956;28;21013;-73
2022/12/18 00:19:15;;;;;;;95.70;36.73;;;-3.40;33.80;;;;;;4967643;28;20891;-68
2022/12/18 00:21:43;;;;;;;83.57;37.13;;;-3.40;33.80;;;;;;4963829;28;20461;-68
2022/12/18 00:24:10;;;;;;;81.47;34.67;;;-3.40;33.80;;;;;;4965561;28;20481;-68
2022/12/18 00:26:38;;;;;;;83.87;36.17;;;-3.40;33.80;;;;;;4967882;28;20930;-68
2022/12/18 00:29:08;;;;;;;85.33;37.40;;;-3.40;33.70;;;;;;4966426;28;20984;-68
2022/12/18 00:31:35;;;;;;;83.40;37.87;;;-3.40;33.90;;;;;;4967186;28;20486;-68
2022/12/18 00:34:02;;;;;;;87.57;36.80;;;-3.40;33.80;;;;;;4964701;28;20989;-68
2022/12/18 00:36:33;;;;;;;84.43;37.50;;;-3.40;33.80;;;;;;4968480;28;20486;-68
2022/12/18 00:39:01;;;;;;;84.13;37.83;;;-2.90;34.10;;;;;;4969894;28;20479;-68
2022/12/18 00:44:15;;;;;;;96.13;36.37;;;-3.40;33.90;;;;;;4967965;28;20475;-68
2022/12/18 00:46:42;;;;;;;83.13;36.73;;;-3.40;33.90;;;;;;4965398;28;20477;-68
2022/12/18 00:49:08;;;;;;;74.93;34.63;;;-3.40;33.90;;;;;;4967548;28;20469;-68
2022/12/18 00:51:36;;;;;;;77.77;32.40;;;-3.40;33.90;;;;;;4966452;28;20992;-68
2022/12/18 00:54:03;;;;;;;81.07;34.17;;;-3.40;34.40;;;;;;4967878;28;20493;-68
2022/12/18 00:56:30;;;;;;;88.97;37.33;;;-3.40;33.90;;;;;;4967623;28;20997;-68
2022/12/18 00:58:57;;;;;;;86.87;37.37;;;-3.40;33.90;;;;;;4965516;28;20476;-68
2022/12/18 01:01:24;;;;;;;84.60;35.87;;;-3.40;33.90;;;;;;4966750;28;20477;-68
2022/12/18 01:03:50;;;;;;;90.37;35.40;;;-3.40;34.00;;;;;;4968426;28;20477;-68
2022/12/18 01:06:17;;;;;;;74.03;37.40;;;-3.30;34.00;;;;;;4967270;28;20473;-67
2022/12/18 01:08:46;;;;;;;75.80;33.63;;;-3.30;33.90;;;;;;4967631;28;20461;-68
2022/12/18 01:11:16;;;;;;;81.77;38.73;;;-3.40;33.90;;;;;;4964840;28;20462;-68
2022/12/18 01:13:43;;;;;;;78.40;36.13;;;-3.40;33.90;;;;;;4964427;28;20492;-68
2022/12/18 01:16:13;;;;;;;74.07;33.23;;;-3.40;33.80;;;;;;4960085;28;20497;-68
2022/12/18 01:18:40;;;;;;;84.50;37.90;;;-3.40;33.90;;;;;;4965318;28;20494;-68
2022/12/18 01:21:08;;;;;;;89.90;35.33;;;-3.40;33.90;;;;;;4966683;28;20472;-68
2022/12/18 01:23:35;;;;;;;77.10;36.93;;;-3.40;34.00;;;;;;4967459;28;20476;-67
2022/12/18 01:26:07;;;;;;;79.00;32.87;;;-3.40;34.00;;;;;;4962347;28;21149;-68
2022/12/18 01:28:34;;;;;;;78.27;35.50;;;-3.40;34.00;;;;;;4967799;28;20473;-67
2022/12/18 01:31:11;;;;;;;79.27;33.63;;;-3.50;34.00;;;;;;4967875;28;20513;-67
2022/12/18 01:33:38;;;;;;;87.43;34.57;;;-3.50;34.10;;;;;;4967599;28;20480;-68
2022/12/18 01:36:05;;;;;;;86.70;38.00;;;-3.80;33.90;;;;;;4966728;28;20490;-67
2022/12/18 01:38:32;;;;;;;81.63;35.10;;;-3.40;34.00;;;;;;4965451;28;20468;-68
2022/12/18 01:40:59;;;;;;;78.73;36.10;;;-3.40;34.00;;;;;;4963737;28;20492;-67
2022/12/18 01:43:52;;;;;;;76.50;36.93;;;-3.40;34.00;;;;;;4965046;28;20508;-68
2022/12/18 01:46:21;;;;;;;80.53;36.00;;;-3.40;34.00;;;;;;4965616;28;20462;-68
2022/12/18 01:48:51;;;;;;;87.23;36.97;;;-3.40;33.80;;;;;;4967832;28;20458;-68
2022/12/18 01:51:18;;;;;;;89.17;38.43;;;-3.40;33.90;;;;;;4960155;28;20469;-68
2022/12/18 01:53:46;;;;;;;85.00;37.27;;;-3.40;33.80;;;;;;4956381;28;20489;-68
2022/12/18 01:56:15;;;;;;;78.37;35.27;;;-3.40;33.80;;;;;;4962649;28;20485;-68
2022/12/18 01:58:53;;;;;;;88.27;36.40;;;-3.40;33.80;;;;;;4965043;28;20472;-68
2022/12/18 02:01:22;;;;;;;86.53;38.90;;;-3.40;33.70;;;;;;4965006;28;20504;-67
2022/12/18 02:03:49;;;;;;;87.10;35.60;;;-3.40;33.70;;;;;;4965196;28;20516;-68
2022/12/18 02:06:18;;;;;;;77.33;35.80;;;-3.40;33.70;;;;;;4965313;28;20473;-67
2022/12/18 02:08:54;;;;;;;87.80;37.33;;;-3.40;33.70;;;;;;4966922;28;20488;-68
2022/12/18 02:11:31;;;;;;;75.43;35.10;;;-3.40;33.70;;;;;;4964926;28;20642;-68
2022/12/18 02:14:08;;;;;;;75.53;33.73;;;-3.40;33.70;;;;;;4965783;28;21013;-68
2022/12/18 02:16:40;;;;;;;85.60;34.47;;;-3.40;33.70;;;;;;4964237;28;20477;-68
2022/12/18 02:19:20;;;;;;;78.10;35.00;;;-3.50;33.80;;;;;;4963641;28;20462;-70
2022/12/18 02:21:57;;;;;;;83.03;36.83;;;-3.50;33.80;;;;;;4964548;28;20469;-68
2022/12/18 02:24:34;;;;;;;76.90;34.37;;;-3.50;33.70;;;;;;4964644;28;20865;-68
2022/12/18 02:27:05;;;;;;;85.97;34.60;;;-3.50;33.70;;;;;;4966276;28;20467;-68
2022/12/18 02:29:37;;;;;;;72.83;33.70;;;-3.50;33.80;;;;;;4967818;28;20477;-67
2022/12/18 02:32:10;;;;;;;77.50;34.87;;;-3.50;33.70;;;;;;4963767;28;21035;-68
2022/12/18 02:34:39;;;;;;;79.87;35.30;;;-3.50;33.70;;;;;;4964187;28;20527;-68
2022/12/18 02:37:10;;;;;;;87.80;36.60;;;-3.50;33.70;;;;;;4960362;28;20478;-68
2022/12/18 02:39:41;;;;;;;81.30;37.20;;;-3.50;33.80;;;;;;4967378;28;20466;-68
2022/12/18 02:42:09;;;;;;;78.03;35.83;;;-3.50;33.80;;;;;;4965007;28;20469;-68
2022/12/18 02:44:42;;;;;;;85.80;33.23;;;-3.50;33.80;;;;;;4964197;28;20494;-68
2022/12/18 02:47:11;;;;;;;75.13;34.07;;;-3.50;33.80;;;;;;4966549;28;20458;-68
2022/12/18 02:49:45;;;;;;;81.37;37.60;;;-3.50;33.80;;;;;;4966794;28;20457;-67
2022/12/18 02:52:22;;;;;;;79.53;37.03;;;-3.40;33.70;;;;;;4962977;28;21166;-68
2022/12/18 02:54:57;;;;;;;98.30;35.93;;;-3.50;33.70;;;;;;4961715;28;21043;-67
2022/12/18 02:57:35;;;;;;;79.27;34.00;;;-3.40;33.60;;;;;;4953894;28;20485;-68
2022/12/18 03:00:07;;;;;;;71.67;34.27;;;-3.40;33.70;;;;;;4956601;28;20512;-68
2022/12/18 03:02:41;;;;;;;81.93;37.20;;;-3.40;33.50;;;;;;4960152;28;20478;-68
2022/12/18 03:05:13;;;;;;;87.80;37.33;;;-3.40;33.60;;;;;;4964407;28;20485;-68
2022/12/18 03:07:45;;;;;;;92.43;37.80;;;-3.40;33.50;;;;;;4965843;28;20458;-68
2022/12/18 03:10:17;;;;;;;82.63;37.70;;;-3.40;33.40;;;;;;4965261;28;20469;-68
2022/12/18 03:12:50;;;;;;;77.60;36.70;;;-3.40;33.50;;;;;;4965440;28;20469;-68
2022/12/18 03:15:21;;;;;;;80.13;34.53;;;-3.40;33.40;;;;;;4965941;28;20902;-68
2022/12/18 03:17:53;;;;;;;81.43;35.37;;;-3.20;33.40;;;;;;4965411;28;20489;-68
2022/12/18 03:20:24;;;;;;;71.37;34.70;;;-3.40;33.30;;;;;;4965436;28;20463;-68
2022/12/18 03:22:55;;;;;;;78.33;34.17;;;-3.40;33.10;;;;;;4965174;28;20467;-68
2022/12/18 03:25:23;;;;;;;89.07;36.60;;;-3.40;33.00;;;;;;4964744;28;20490;-67
2022/12/18 03:27:56;;;;;;;84.30;34.53;;;-3.40;33.10;;;;;;4964143;28;21187;-68
2022/12/18 03:30:23;;;;;;;86.23;37.93;;;-3.50;33.00;;;;;;4962867;28;20462;-68
2022/12/18 03:32:57;;;;;;;88.10;38.70;;;-3.50;32.90;;;;;;4966510;28;20849;-67
2022/12/18 03:35:30;;;;;;;89.37;37.57;;;-3.50;32.80;;;;;;4966393;28;20488;-68
2022/12/18 03:37:57;;;;;;;93.60;38.10;;;-3.40;32.50;;;;;;4961866;28;20486;-68
2022/12/18 03:40:30;;;;;;;91.20;38.87;;;-3.50;32.40;;;;;;4964523;28;20499;-68
2022/12/18 03:43:03;;;;;;;86.17;38.10;;;-3.50;32.50;;;;;;4963043;28;20470;-67
2022/12/18 03:45:35;;;;;;;84.03;36.93;;;-3.50;32.60;;;;;;4966039;28;20857;-67
2022/12/18 03:48:06;;;;;;;82.83;36.83;;;-3.50;33.20;;;;;;4965921;28;20458;-67
2022/12/18 03:50:42;;;;;;;82.03;36.53;;;-3.60;32.60;;;;;;4961736;28;20473;-67
2022/12/18 03:53:20;;;;;;;86.40;37.07;;;-3.60;32.70;;;;;;4960766;28;20469;-68
2022/12/18 03:55:48;;;;;;;89.80;37.23;;;-3.60;32.70;;;;;;4965299;28;20491;-67
2022/12/18 03:58:20;;;;;;;78.10;36.60;;;-3.60;32.50;;;;;;4965748;28;20517;-67
2022/12/18 04:00:49;;;;;;;78.00;35.60;;;-3.60;32.60;;;;;;4965138;28;20688;-68
2022/12/18 04:03:18;;;;;;;85.87;33.60;;;-3.70;32.70;;;;;;4967796;28;20472;-68
2022/12/18 04:05:48;;;;;;;84.63;35.30;;;-3.70;32.80;;;;;;4963530;28;20883;-68
2022/12/18 04:08:15;;;;;;;84.93;36.97;;;-3.60;32.80;;;;;;4966490;28;20458;-68
2022/12/18 04:10:42;;;;;;;79.87;36.40;;;-3.60;32.80;;;;;;4966314;28;20568;-68
2022/12/18 04:13:09;;;;;;;83.80;35.73;;;-3.70;32.80;;;;;;4963843;28;20484;-68
2022/12/18 04:15:39;;;;;;;85.77;35.73;;;-3.70;32.90;;;;;;4965676;28;20492;-68
2022/12/18 04:18:06;;;;;;;81.17;35.27;;;-3.70;32.80;;;;;;4972298;28;20493;-67
2022/12/18 04:20:32;;;;;;;81.50;33.37;;;-3.60;32.80;;;;;;4968870;28;20468;-68
2022/12/18 04:22:59;;;;;;;76.57;33.97;;;-3.60;32.80;;;;;;4968925;28;20862;-68
2022/12/18 04:25:26;;;;;;;73.60;32.10;;;-3.60;32.80;;;;;;4967372;28;20490;-67
2022/12/18 04:27:53;;;;;;;87.27;33.87;;;-3.60;32.70;;;;;;4968979;28;20465;-68
2022/12/18 04:30:19;;;;;;;80.07;33.73;;;-3.60;32.80;;;;;;4964403;28;20469;-68
2022/12/18 04:32:47;;;;;;;78.67;34.17;;;-3.70;32.80;;;;;;4971174;28;21009;-68
2022/12/18 04:35:14;;;;;;;80.70;35.13;;;-3.60;32.80;;;;;;4969210;28;20481;-68
2022/12/18 04:37:41;;;;;;;78.80;34.53;;;-3.60;32.70;;;;;;4966377;28;21000;-68
2022/12/18 04:40:09;;;;;;;75.97;34.63;;;-3.60;32.60;;;;;;4968732;28;20473;-68
2022/12/18 04:42:35;;;;;;;81.83;35.53;;;-3.60;32.60;;;;;;4965709;28;20473;-68
2022/12/18 04:45:02;;;;;;;86.87;33.57;;;-3.60;32.70;;;;;;4967319;28;21002;-67
2022/12/18 04:47:29;;;;;;;79.00;32.13;;;-3.70;32.70;;;;;;4968733;28;20465;-68
2022/12/18 04:49:57;;;;;;;88.47;37.37;;;-3.70;32.70;;;;;;4968919;28;20468;-67
2022/12/18 04:52:24;;;;;;;80.90;35.57;;;-3.70;32.70;;;;;;4968293;28;20490;-67
2022/12/18 04:54:51;;;;;;;74.20;31.73;;;-3.60;32.60;;;;;;4967535;28;20496;-68
2022/12/18 04:57:18;;;;;;;75.67;32.23;;;-3.60;32.60;;;;;;4961941;28;20582;-68
2022/12/18 04:59:45;;;;;;;76.47;34.80;;;-3.60;32.60;;;;;;4968518;28;20552;-68
2022/12/18 05:02:12;;;;;;;88.33;34.57;;;-3.60;32.60;;;;;;4969055;28;20482;-68
2022/12/18 05:04:40;;;;;;;83.70;33.77;;;-3.70;32.70;;;;;;4968254;28;20485;-68
2022/12/18 05:07:08;;;;;;;91.77;33.60;;;-3.70;32.70;;;;;;4967702;28;20480;-68
2022/12/18 05:09:35;;;;;;;86.03;31.57;;;-3.70;32.80;;;;;;4969034;28;21226;-68
2022/12/18 05:12:01;;;;;;;79.30;35.30;;;-3.70;32.80;;;;;;4967986;28;20465;-67
2022/12/18 05:14:29;;;;;;;78.00;35.60;;;-3.60;32.80;;;;;;4964721;28;20481;-68
2022/12/18 05:16:56;;;;;;;85.63;32.10;;;-3.60;32.80;;;;;;4967798;28;20513;-68
2022/12/18 05:19:23;;;;;;;86.87;31.77;;;-3.60;32.70;;;;;;4968577;28;20974;-68
2022/12/18 05:21:50;;;;;;;86.17;33.23;;;-3.60;32.70;;;;;;4965586;28;20971;-68
2022/12/18 05:24:18;;;;;;;78.57;33.97;;;-3.60;32.70;;;;;;4965657;28;20477;-69
2022/12/18 05:26:45;;;;;;;93.00;34.70;;;-3.60;32.80;;;;;;4966301;28;20501;-68
2022/12/18 05:29:12;;;;;;;76.07;33.17;;;-3.60;32.80;;;;;;4966818;28;20477;-68
2022/12/18 05:31:39;;;;;;;90.37;36.33;;;-3.60;32.80;;;;;;4964570;28;20477;-68
2022/12/18 05:34:05;;;;;;;85.50;34.53;;;-3.60;32.80;;;;;;4966591;28;21005;-68
2022/12/18 05:36:33;;;;;;;86.60;36.13;;;-3.60;32.80;;;;;;4964449;28;20479;-68
2022/12/18 05:39:00;;;;;;;89.87;36.80;;;-3.60;32.80;;;;;;4964862;28;20470;-68
2022/12/18 05:41:29;;;;;;;90.03;34.63;;;-3.60;32.70;;;;;;4965966;28;20465;-68
2022/12/18 05:43:56;;;;;;;92.50;35.03;;;-3.60;32.80;;;;;;4962916;28;21119;-67
2022/12/18 05:46:24;;;;;;;81.03;34.07;;;-3.60;32.80;;;;;;4965966;28;20462;-68
2022/12/18 05:48:52;;;;;;;85.50;34.03;;;-3.60;32.90;;;;;;4967596;28;20458;-68
2022/12/18 05:51:21;;;;;;;92.83;34.60;;;-3.30;33.10;;;;;;4966597;28;20538;-68
2022/12/18 05:53:49;;;;;;;80.37;32.43;;;-3.60;33.00;;;;;;4965879;28;20500;-68
2022/12/18 05:56:19;;;;;;;84.43;34.80;;;-3.60;33.10;;;;;;4963415;28;20560;-68
2022/12/18 05:58:47;;;;;;;86.90;33.20;;;-3.60;33.00;;;;;;4965700;28;20485;-68
2022/12/18 06:01:17;;;;;;;97.83;36.17;;;-3.60;33.10;;;;;;4966434;28;20481;-68
2022/12/18 06:03:44;;;;;;;93.40;34.10;;;-3.60;33.00;;;;;;4966796;28;20493;-68
2022/12/18 06:06:15;;;;;;;99.30;37.00;;;-3.60;33.00;;;;;;4966371;28;20666;-67
2022/12/18 06:08:43;;;;;;;96.57;36.10;;;-3.60;33.50;;;;;;4965305;28;20470;-68
2022/12/18 06:11:09;;;;;;;94.47;35.70;;;-3.60;33.00;;;;;;4964858;28;20488;-68
2022/12/18 06:13:36;;;;;;;98.20;35.30;;;-3.60;33.10;;;;;;4964046;28;20459;-68
2022/12/18 06:16:06;;;;;;;92.77;37.50;;;-3.60;33.10;;;;;;4964686;28;20465;-68
2022/12/18 06:18:33;;;;;;;94.97;36.23;;;-3.60;33.10;;;;;;4966577;28;20532;-68
2022/12/18 06:21:01;;;;;;;88.97;33.03;;;-3.40;33.30;;;;;;4966885;28;20500;-68
2022/12/18 06:23:28;;;;;;;93.47;36.60;;;-3.70;33.30;;;;;;4965625;28;20493;-68
2022/12/18 06:25:55;;;;;;;89.40;34.83;;;-3.60;33.30;;;;;;4966468;28;21174;-67
2022/12/18 06:28:22;;;;;;;101.93;34.97;;;-3.70;33.30;;;;;;4965627;28;20476;-68
2022/12/18 06:30:50;;;;;;;94.90;36.73;;;-3.60;33.40;;;;;;4963105;28;20474;-67
2022/12/18 06:33:18;;;;;;;96.40;37.00;;;-3.70;33.40;;;;;;4966451;28;20500;-67
2022/12/18 06:35:45;;;;;;;95.63;38.07;;;-3.70;33.40;;;;;;4963637;28;20569;-68
2022/12/18 06:38:12;;;;;;;93.67;41.10;;;-3.70;33.50;;;;;;4964576;28;20486;-68
2022/12/18 06:40:39;;;;;;;87.90;36.63;;;-3.50;33.60;;;;;;4955462;28;20462;-68
2022/12/18 06:43:06;;;;;;;98.90;37.53;;;-3.60;33.50;;;;;;4965549;28;20481;-68
2022/12/18 06:45:33;;;;;;;85.97;34.90;;;-3.50;33.50;;;;;;4964971;28;20477;-68
2022/12/18 06:48:00;;;;;;;84.97;36.43;;;-3.50;34.20;;;;;;4962177;28;20457;-68
2022/12/18 06:50:28;;;;;;;96.77;37.77;;;-3.50;33.60;;;;;;4962844;28;20466;-68
2022/12/18 06:52:55;;;;;;;87.50;35.80;;;-3.50;33.60;;;;;;4964352;28;20837;-68
2022/12/18 06:55:22;;;;;;;93.13;36.77;;;-3.50;33.60;;;;;;4962330;28;20496;-68
2022/12/18 06:57:49;;;;;;;98.37;35.57;;;-3.50;33.60;;;;;;4964902;28;20478;-68
2022/12/18 07:00:16;;;;;;;94.90;37.60;;;-3.50;33.50;;;;;;4963386;28;20981;-68
2022/12/18 07:02:43;;;;;;;98.63;38.47;;;-3.50;33.50;;;;;;4964663;28;20474;-68
2022/12/18 07:05:10;;;;;;;96.37;38.23;;;-3.50;33.50;;;;;;4963513;28;20496;-68
2022/12/18 07:07:38;;;;;;;87.27;35.67;;;-3.50;33.50;;;;;;4965221;28;20458;-68
2022/12/18 07:10:06;;;;;;;100.80;40.40;;;-3.50;33.50;;;;;;4965267;28;20458;-68
2022/12/18 07:12:32;;;;;;;106.43;39.40;;;-3.50;33.50;;;;;;4966338;28;20843;-68
2022/12/18 07:14:59;;;;;;;103.73;42.70;;;-3.50;33.60;;;;;;4963184;28;20473;-68
2022/12/18 07:17:26;;;;;;;115.33;44.17;;;-3.40;33.60;;;;;;4957973;28;20492;-68
2022/12/18 07:19:53;;;;;;;98.97;39.60;;;-3.40;33.60;;;;;;4964877;28;20488;-68
2022/12/18 07:22:19;;;;;;;107.97;41.93;;;-3.40;33.60;;;;;;4962225;28;20461;-68
2022/12/18 07:24:47;;;;;;;92.77;40.33;;;-3.30;33.60;;;;;;4964984;28;20500;-67
2022/12/18 07:27:14;;;;;;;88.90;38.47;;;-3.30;33.70;;;;;;4964798;28;20454;-67
2022/12/18 07:29:41;;;;;;;92.90;37.33;;;-3.30;33.60;;;;;;4963840;28;20472;-68
2022/12/18 07:32:08;;;;;;;95.80;38.57;;;-3.30;33.50;;;;;;4966438;28;20485;-68
2022/12/18 07:34:34;;;;;;;97.53;40.50;;;-3.20;33.50;;;;;;4964300;28;20482;-68
2022/12/18 07:37:02;;;;;;;109.87;39.33;;;-3.20;33.40;;;;;;4964762;28;20866;-67
2022/12/18 07:39:28;;;;;;;101.33;39.40;;;-3.20;33.40;;;;;;4962739;28;21135;-67
2022/12/18 07:44:41;;;;;;;108.63;37.90;;;-3.20;33.50;;;;;;4963173;28;20480;-67
2022/12/18 07:47:08;;;;;;;89.80;35.53;;;-3.10;33.50;;;;;;4960515;28;20470;-67
2022/12/18 07:49:34;;;;;;;85.53;36.27;;;-3.10;33.50;;;;;;4960551;28;21220;-68
2022/12/18 07:52:01;;;;;;;86.27;37.73;;;-3.10;33.50;;;;;;4968168;28;20469;-66
2022/12/18 07:54:29;;;;;;;86.13;34.80;;;-3.00;33.50;;;;;;4966610;28;20497;-68
2022/12/18 07:56:57;;;;;;;87.17;38.80;;;-2.90;33.70;;;;;;4966601;28;20874;-67
2022/12/18 07:59:24;;;;;;;92.33;37.80;;;-2.90;33.80;;;;;;4966887;28;20865;-68
2022/12/18 08:01:50;;;;;;;96.27;35.60;;;-2.80;33.70;;;;;;4968303;28;20477;-67
2022/12/18 08:04:17;;;;;;;92.00;36.63;;;-2.80;33.70;;;;;;4968088;28;20504;-68
2022/12/18 08:06:44;;;;;;;77.10;31.70;;;-2.70;33.80;;;;;;4965316;28;20469;-68
2022/12/18 08:09:11;;;;;;;88.50;33.67;;;-2.60;33.80;;;;;;4967579;28;20462;-68
2022/12/18 08:11:38;;;;;;;81.10;35.87;;;-2.60;33.70;;;;;;4967717;28;21094;-68
2022/12/18 08:14:06;;;;;;;76.83;34.90;;;-2.50;33.60;;;;;;4968472;28;20568;-68
2022/12/18 08:16:33;;;;;;;88.73;34.73;;;-2.50;33.60;;;;;;4967213;28;20465;-68
2022/12/18 08:18:59;;;;;;;83.37;37.63;;;-2.40;33.50;;;;;;4969391;28;20477;-68
2022/12/18 08:21:28;;;;;;;92.57;37.77;;;-2.40;33.30;;;;;;4964558;28;20981;-68
2022/12/18 08:23:56;;;;;;;77.83;34.60;;;-2.40;33.20;;;;;;4968067;28;20481;-68
2022/12/18 08:26:25;;;;;;;87.53;36.83;;;-2.40;33.10;;;;;;4969255;28;20485;-68
2022/12/18 08:28:54;;;;;;;83.60;34.97;;;-2.40;33.10;;;;;;4964716;28;20458;-67
2022/12/18 08:31:22;;;;;;;86.50;35.63;;;-2.30;33.10;;;;;;4967478;28;20901;-68
2022/12/18 08:33:50;;;;;;;72.70;32.03;;;-2.30;33.00;;;;;;4968538;28;20478;-68
2022/12/18 08:36:17;;;;;;;83.70;35.27;;;-2.30;33.20;;;;;;4968047;28;20493;-68
2022/12/18 08:38:44;;;;;;;84.27;36.70;;;-2.20;32.90;;;;;;4965835;28;20492;-68
2022/12/18 08:41:12;;;;;;;79.90;35.83;;;-2.20;32.90;;;;;;4964513;28;20548;-68
2022/12/18 08:46:27;;;;;;;74.87;32.80;;;-2.10;32.80;;;;;;4968257;28;20445;-68
2022/12/18 08:48:55;;;;;;;83.10;34.87;;;-2.00;32.80;;;;;;4963295;28;20462;-68
2022/12/18 08:51:22;;;;;;;84.93;38.10;;;-2.00;32.80;;;;;;4962665;28;20458;-68
2022/12/18 08:53:49;;;;;;;85.03;33.67;;;-2.00;32.80;;;;;;4968589;28;20497;-68
2022/12/18 08:56:16;;;;;;;74.00;32.73;;;-2.00;32.70;;;;;;4964781;28;20489;-68
2022/12/18 08:58:43;;;;;;;79.03;34.07;;;-1.90;32.70;;;;;;4966306;28;20490;-68
2022/12/18 09:01:12;;;;;;;75.27;31.73;;;-2.00;32.50;;;;;;4968437;28;20481;-68
2022/12/18 09:03:40;;;;;;;76.40;33.40;;;-2.00;32.70;;;;;;4965858;28;20481;-68
2022/12/18 09:06:07;;;;;;;76.27;33.67;;;-1.90;32.80;;;;;;4969534;28;20469;-67
2022/12/18 09:08:34;;;;;;;69.63;29.33;;;-1.90;32.90;;;;;;4964976;28;20457;-67
2022/12/18 09:11:01;;;;;;;66.43;27.93;;;-1.90;32.80;;;;;;4967315;28;20466;-67
2022/12/18 09:13:28;;;;;;;74.03;32.27;;;-1.90;32.80;;;;;;4967000;28;20458;-67
2022/12/18 09:15:56;;;;;;;67.87;29.93;;;-1.80;32.80;;;;;;4965668;28;20819;-67
2022/12/18 09:18:24;;;;;;;68.73;31.00;;;-1.80;32.70;;;;;;4966956;28;21006;-67
2022/12/18 09:20:52;;;;;;;64.80;31.17;;;-1.70;32.70;;;;;;4961471;28;20466;-68
2022/12/18 09:23:19;;;;;;;62.53;29.27;;;-1.70;32.70;;;;;;4970408;28;20544;-67
2022/12/18 09:25:46;;;;;;;65.30;30.80;;;-1.60;32.80;;;;;;4966823;28;20466;-67
2022/12/18 09:28:15;;;;;;;69.60;30.43;;;-1.50;32.90;;;;;;4962226;28;20513;-68
2022/12/18 09:30:44;;;;;;;72.63;33.00;;;-1.60;32.90;;;;;;4967316;28;20520;-68
2022/12/18 09:33:11;;;;;;;67.13;30.93;;;-1.50;32.90;;;;;;4966897;28;20469;-67
2022/12/18 09:35:41;;;;;;;60.23;28.57;;;-1.50;32.90;;;;;;4965952;28;20486;-67
2022/12/18 09:38:12;;;;;;;53.47;26.20;;;-1.50;33.00;;;;;;4963372;28;20485;-68
2022/12/18 09:40:44;;;;;;;60.10;28.47;;;-1.40;32.90;;;;;;4961814;28;20468;-68
2022/12/18 09:43:16;;;;;;;49.97;25.67;;;-1.40;33.40;;;;;;4954635;28;21254;-68
2022/12/18 09:45:45;;;;;;;60.13;27.83;;;-1.30;32.70;;;;;;4959541;28;20469;-68
2022/12/18 09:48:20;;;;;;;45.43;22.03;;;-1.30;32.40;;;;;;4965902;28;20460;-68
2022/12/18 09:50:48;;;;;;;45.60;21.90;;;-1.30;32.00;;;;;;4960133;28;20473;-69
2022/12/18 09:53:21;;;;;;;42.43;22.40;;;-1.20;32.00;;;;;;4958607;28;20465;-68
2022/12/18 09:55:49;;;;;;;39.23;19.70;;;-1.30;32.00;;;;;;4963500;28;20476;-69
2022/12/18 09:58:22;;;;;;;37.47;19.40;;;-1.30;32.20;;;;;;4967153;28;20481;-69
2022/12/18 10:00:52;;;;;;;42.67;20.10;;;-1.40;32.30;;;;;;4966453;28;20457;-69
2022/12/18 10:03:18;;;;;;;44.50;23.60;;;-1.40;32.60;;;;;;4959461;28;20474;-69
2022/12/18 10:05:57;;;;;;;45.87;20.50;;;-1.40;32.90;;;;;;4962388;28;20485;-69
2022/12/18 10:08:39;;;;;;;38.70;18.77;;;-1.40;33.20;;;;;;4963855;28;20458;-69
2022/12/18 10:11:28;;;;;;;34.87;17.83;;;-1.50;33.30;;;;;;4958313;28;20577;-69
2022/12/18 10:14:02;;;;;;;43.63;18.67;;;-1.60;33.50;;;;;;4964210;28;20491;-69
2022/12/18 10:16:36;;;;;;;44.50;21.43;;;-1.60;33.50;;;;;;4958557;28;20556;-69
2022/12/18 10:19:18;;;;;;;44.37;19.90;;;-1.60;33.60;;;;;;4965912;28;20473;-69
2022/12/18 10:21:53;;;;;;;38.50;19.93;;;-1.70;33.90;;;;;;4963501;28;20553;-70
2022/12/18 10:24:29;;;;;;;51.33;23.50;;;-1.60;33.90;;;;;;4964363;28;20485;-70
2022/12/18 10:27:01;;;;;;;48.30;22.60;;;-1.60;33.80;;;;;;4958048;28;20466;-69
2022/12/18 10:29:28;;;;;;;46.03;21.77;;;-1.50;33.90;;;;;;4959695;28;20461;-69
2022/12/18 10:31:55;;;;;;;47.73;23.20;;;-1.50;33.80;;;;;;4958019;28;20470;-70
2022/12/18 10:34:21;;;;;;;49.50;21.60;;;-1.50;33.60;;;;;;4958706;28;20489;-70
2022/12/18 10:36:48;;;;;;;42.00;19.70;;;-1.50;33.70;;;;;;4958446;28;20466;-70
2022/12/18 10:39:17;;;;;;;45.80;21.00;;;-1.40;33.20;;;;;;4959554;28;20491;-70
2022/12/18 10:41:46;;;;;;;42.60;20.87;;;-1.40;33.30;;;;;;4961100;28;20457;-70
2022/12/18 10:44:17;;;;;;;47.73;24.17;;;-1.50;33.60;;;;;;4959609;28;20486;-70
2022/12/18 10:46:46;;;;;;;44.10;22.27;;;-1.50;34.10;;;;;;4957582;28;20516;-70
2022/12/18 10:49:25;;;;;;;53.20;25.13;;;-1.40;33.80;;;;;;4957868;28;20462;-70
2022/12/18 10:52:04;;;;;;;50.47;23.90;;;-1.30;33.90;;;;;;4962676;28;21234;-70
2022/12/18 10:54:32;;;;;;;46.30;22.33;;;-1.30;33.80;;;;;;4958844;28;20485;-69
2022/12/18 10:57:30;;;;;;;38.37;18.40;;;-1.20;33.90;;;;;;4960471;28;20959;-73
2022/12/18 10:59:59;;;;;;;40.10;17.90;;;-1.10;33.30;;;;;;4961682;28;20547;-72
2022/12/18 11:02:29;;;;;;;43.90;19.53;;;-1.00;32.60;;;;;;4961864;28;21135;-74
2022/12/18 11:04:56;;;;;;;43.63;21.17;;;-1.10;32.40;;;;;;4959315;28;20496;-62
2022/12/18 11:07:22;;;;;;;40.33;20.83;;;-1.00;32.50;;;;;;4960274;28;20962;-64
2022/12/18 11:10:01;;;;;;;40.70;20.07;;;-1.00;32.20;;;;;;4963822;28;21103;-65
2022/12/18 11:12:30;;;;;;;35.90;18.73;;;-1.00;32.20;;;;;;4960660;28;20465;-64
2022/12/18 11:14:59;;;;;;;38.63;19.67;;;-1.00;31.90;;;;;;4965255;28;20495;-64
2022/12/18 11:17:30;;;;;;;35.53;18.37;;;-1.10;32.20;;;;;;4961326;28;20480;-67
2022/12/18 11:19:59;;;;;;;38.80;20.07;;;-1.10;32.30;;;;;;4960663;28;20543;-64
2022/12/18 11:22:28;;;;;;;38.80;19.80;;;-1.00;32.50;;;;;;4962968;28;21756;-66
2022/12/18 11:24:58;;;;;;;34.50;17.40;;;-1.00;33.10;;;;;;4967300;28;20481;-65
2022/12/18 11:27:25;;;;;;;38.20;18.53;;;-1.00;32.60;;;;;;4966681;28;20473;-66
2022/12/18 11:29:53;;;;;;;38.80;17.43;;;-0.90;32.00;;;;;;4968219;28;20457;-67
2022/12/18 11:32:34;;;;;;;40.53;19.67;;;-1.00;31.70;;;;;;4962786;28;20489;-68
2022/12/18 11:35:10;;;;;;;44.87;19.43;;;-1.00;32.20;;;;;;4963901;28;20488;-64
2022/12/18 11:37:37;;;;;;;40.47;19.63;;;-0.90;32.40;;;;;;4969061;28;20469;-64
2022/12/18 11:40:12;;;;;;;39.23;20.23;;;-0.90;32.30;;;;;;4965349;28;21097;-65
2022/12/18 11:42:45;;;;;;;38.13;19.67;;;-0.90;32.00;;;;;;4968152;28;20472;-65
2022/12/18 11:45:27;;;;;;;37.33;20.90;;;-0.80;32.10;;;;;;4964794;28;20489;-64
2022/12/18 11:47:59;;;;;;;36.33;17.20;;;-0.80;32.00;;;;;;4967030;28;20485;-65
2022/12/18 11:50:30;;;;;;;36.00;17.47;;;-0.70;31.40;;;;;;4965967;28;20462;-65
2022/12/18 11:52:57;;;;;;;36.47;17.23;;;-0.70;31.50;;;;;;4976225;28;20466;-65
2022/12/18 11:55:34;;;;;;;39.40;18.97;;;-0.70;31.60;;;;;;4967454;28;20501;-65
2022/12/18 11:58:09;;;;;;;38.90;19.70;;;-0.70;31.70;;;;;;4965595;28;20469;-64
2022/12/18 12:00:46;;;;;;;38.73;18.00;;;-0.70;31.60;;;;;;4963450;28;20479;-66
2022/12/18 12:03:48;;;;;;;39.60;18.63;;;-0.60;31.30;;;;;;4967828;28;20469;-66
2022/12/18 12:06:21;;;;;;;32.63;17.80;;;-0.60;31.10;;;;;;4960912;28;20548;-64
2022/12/18 12:09:02;;;;;;;37.93;18.67;;;-0.60;30.40;;;;;;4957949;28;20508;-65
2022/12/18 12:11:42;;;;;;;38.50;19.53;;;-0.60;30.80;;;;;;4965830;28;20461;-66
2022/12/18 12:14:26;;;;;;;32.47;17.60;;;-0.60;31.60;;;;;;4952937;28;20496;-64
2022/12/18 12:16:59;;;;;;;37.60;17.60;;;-0.60;30.40;;;;;;4963951;28;20492;-65
2022/12/18 12:19:38;;;;;;;34.13;18.23;;;-0.60;30.50;;;;;;4962894;28;20486;-65
2022/12/18 12:22:11;;;;;;;38.13;17.77;;;-0.70;30.60;;;;;;4965743;28;20476;-64
2022/12/18 12:24:49;;;;;;;42.07;19.50;;;-0.80;30.60;;;;;;4963007;28;20506;-64
2022/12/18 12:27:25;;;;;;;32.60;17.10;;;-0.80;31.00;;;;;;4961470;28;20542;-65
2022/12/18 12:30:01;;;;;;;37.57;18.60;;;-0.80;31.00;;;;;;4965807;28;20472;-64
2022/12/18 12:32:42;;;;;;;36.37;18.37;;;-0.90;31.00;;;;;;4967968;28;20480;-65
2022/12/18 12:35:18;;;;;;;33.87;15.80;;;-1.00;31.90;;;;;;4963547;28;20512;-65
2022/12/18 12:37:54;;;;;;;36.53;17.10;;;-1.10;31.80;;;;;;4967210;28;20465;-65
2022/12/18 12:40:25;;;;;;;33.50;17.20;;;-1.10;32.00;;;;;;4964543;28;20485;-65
2022/12/18 12:43:15;;;;;;;32.00;16.13;;;-1.20;32.10;;;;;;4966719;28;20462;-65
2022/12/18 12:45:48;;;;;;;36.67;18.40;;;-1.20;32.40;;;;;;4965007;28;20485;-65
2022/12/18 12:48:24;;;;;;;35.53;16.37;;;-1.20;32.30;;;;;;4964335;28;20466;-65